createdAt,value
2023-03-23T00:01:26.372Z,8
2023-03-23T00:04:14.564Z,8
2023-03-23T00:07:02.784Z,19
2023-03-23T00:09:50.865Z,8
2023-03-23T00:12:38.710Z,7
2023-03-23T00:15:27.072Z,8
2023-03-23T00:18:23.938Z,0
2023-03-23T00:21:11.647Z,13
2023-03-23T00:24:00.793Z,1
2023-03-23T00:26:48.623Z,0
2023-03-23T00:29:36.916Z,9
2023-03-23T00:32:24.737Z,3
2023-03-23T00:35:13.795Z,12
2023-03-23T00:38:02.416Z,0
2023-03-23T00:40:51.293Z,14
2023-03-23T00:43:38.958Z,0
2023-03-23T00:46:26.958Z,3
2023-03-23T00:49:14.932Z,5
2023-03-23T00:52:02.872Z,4
2023-03-23T00:54:50.807Z,6
2023-03-23T00:57:38.708Z,5
2023-03-23T01:00:26.482Z,11
2023-03-23T01:03:14.243Z,1
2023-03-23T01:06:02.129Z,6
2023-03-23T01:08:50.396Z,8
2023-03-23T01:11:38.420Z,5
2023-03-23T01:14:26.620Z,0
2023-03-23T01:17:14.561Z,7
2023-03-23T01:20:03.264Z,10
2023-03-23T01:22:51.227Z,2
2023-03-23T01:25:39.357Z,0
2023-03-23T01:28:27.380Z,8
2023-03-23T01:31:15.230Z,2
2023-03-23T01:34:03.201Z,6
2023-03-23T01:36:51.496Z,0
2023-03-23T01:39:39.723Z,10
2023-03-23T01:42:27.987Z,9
2023-03-23T01:45:16.143Z,12
2023-03-23T01:48:04.202Z,11
2023-03-23T01:50:52.256Z,11
2023-03-23T01:53:45.675Z,5
2023-03-23T01:56:33.531Z,12
2023-03-23T01:59:21.547Z,5
2023-03-23T02:02:09.337Z,9
2023-03-23T02:04:57.268Z,0
2023-03-23T02:07:45.617Z,5
2023-03-23T02:10:34.269Z,8
2023-03-23T02:13:22.028Z,9
2023-03-23T02:16:10.191Z,7
2023-03-23T02:18:58.947Z,7
2023-03-23T02:21:46.779Z,5
2023-03-23T02:24:34.722Z,0
2023-03-23T02:27:22.653Z,1
2023-03-23T02:30:10.411Z,5
2023-03-23T02:32:59.317Z,7
2023-03-23T02:35:47.141Z,7
2023-03-23T02:38:35.170Z,8
2023-03-23T02:41:23.521Z,4
2023-03-23T02:44:11.707Z,1
2023-03-23T02:46:59.881Z,8
2023-03-23T02:49:48.093Z,2
2023-03-23T02:52:35.771Z,7
2023-03-23T02:55:23.920Z,4
2023-03-23T02:58:12.464Z,1
2023-03-23T03:01:00.350Z,3
2023-03-23T03:03:48.466Z,4
2023-03-23T03:06:37.501Z,0
2023-03-23T03:09:25.289Z,6
2023-03-23T03:12:13.120Z,0
2023-03-23T03:15:00.957Z,16
2023-03-23T03:17:49.248Z,1
2023-03-23T03:20:37.572Z,5
2023-03-23T03:23:25.945Z,0
2023-03-23T03:26:13.732Z,3
2023-03-23T03:29:01.665Z,3
2023-03-23T03:31:49.657Z,0
2023-03-23T03:34:37.897Z,4
2023-03-23T03:37:25.755Z,3
2023-03-23T03:40:14.642Z,3
2023-03-23T03:43:02.784Z,8
2023-03-23T03:45:50.903Z,4
2023-03-23T03:48:39.065Z,7
2023-03-23T03:51:27.650Z,4
2023-03-23T03:54:15.577Z,0
2023-03-23T03:57:04.592Z,10
2023-03-23T03:59:52.453Z,7
2023-03-23T04:02:43.670Z,6
2023-03-23T04:05:31.807Z,9
2023-03-23T04:08:19.950Z,5
2023-03-23T04:11:32.818Z,5
2023-03-23T04:14:21.575Z,6
2023-03-23T04:17:09.411Z,10
2023-03-23T04:19:57.398Z,5
2023-03-23T04:22:51.941Z,3
2023-03-23T04:25:41.205Z,3
2023-03-23T04:28:30.079Z,1
2023-03-23T04:31:18.412Z,4
2023-03-23T04:34:07.063Z,9
2023-03-23T04:36:56.704Z,4
2023-03-23T04:39:45.196Z,0
2023-03-23T04:42:33.284Z,7
2023-03-23T04:45:21.152Z,7
2023-03-23T04:48:08.902Z,5
2023-03-23T04:50:56.990Z,0
2023-03-23T04:53:44.926Z,4
2023-03-23T04:56:32.664Z,4
2023-03-23T04:59:20.651Z,8
2023-03-23T05:02:13.688Z,12
2023-03-23T05:05:02.872Z,14
2023-03-23T05:07:50.502Z,15
2023-03-23T05:10:46.068Z,25
2023-03-23T05:13:33.822Z,39
2023-03-23T05:16:21.884Z,67
2023-03-23T05:19:09.745Z,98
2023-03-23T05:21:57.655Z,113
2023-03-23T05:24:45.339Z,123
2023-03-23T05:27:33.104Z,162
2023-03-23T05:30:20.953Z,184
2023-03-23T05:33:08.843Z,256
2023-03-23T05:35:56.720Z,268
2023-03-23T05:38:44.660Z,332
2023-03-23T05:41:32.338Z,418
2023-03-23T05:44:20.277Z,502
2023-03-23T05:47:08.057Z,512
2023-03-23T05:49:55.820Z,556
2023-03-23T05:52:43.655Z,602
2023-03-23T05:55:33.111Z,633
2023-03-23T05:58:20.983Z,611
2023-03-23T06:01:08.834Z,674
2023-03-23T06:03:58.125Z,691
2023-03-23T06:06:48.076Z,722
2023-03-23T06:09:36.204Z,745
2023-03-23T06:12:24.108Z,739
2023-03-23T06:15:11.898Z,768
2023-03-23T06:18:00.485Z,760
2023-03-23T06:20:48.291Z,812
2023-03-23T06:23:38.227Z,860
2023-03-23T06:26:25.958Z,844
2023-03-23T06:29:13.923Z,852
2023-03-23T06:32:01.735Z,860
2023-03-23T06:34:49.695Z,854
2023-03-23T06:37:37.379Z,844
2023-03-23T06:40:25.325Z,880
2023-03-23T06:43:13.223Z,900
2023-03-23T06:46:01.031Z,927
2023-03-23T06:48:48.818Z,928
2023-03-23T06:51:36.758Z,916
2023-03-23T06:54:24.493Z,930
2023-03-23T06:57:12.328Z,929
2023-03-23T07:00:00.283Z,924
2023-03-23T07:02:48.847Z,924
2023-03-23T07:05:36.695Z,921
2023-03-23T07:08:26.531Z,913
2023-03-23T07:11:14.255Z,909
2023-03-23T07:14:02.169Z,897
2023-03-23T07:16:50.155Z,899
2023-03-23T07:19:38.012Z,905
2023-03-23T07:22:27.105Z,920
2023-03-23T07:25:15.884Z,922
2023-03-23T07:28:03.918Z,917
2023-03-23T07:30:51.758Z,914
2023-03-23T07:33:39.670Z,894
2023-03-23T07:36:27.732Z,906
2023-03-23T07:39:15.572Z,905
2023-03-23T07:42:03.607Z,900
2023-03-23T07:44:51.453Z,890
2023-03-23T07:47:39.410Z,900
2023-03-23T07:50:40.807Z,893
2023-03-23T07:53:28.718Z,894
2023-03-23T07:56:16.345Z,916
2023-03-23T07:59:04.334Z,910
2023-03-23T08:01:52.063Z,927
2023-03-23T08:04:39.901Z,945
2023-03-23T08:07:27.766Z,926
2023-03-23T08:10:15.731Z,935
2023-03-23T08:13:07.456Z,936
2023-03-23T08:15:55.536Z,931
2023-03-23T08:18:43.373Z,934
2023-03-23T08:21:31.277Z,943
2023-03-23T08:24:19.112Z,956
2023-03-23T08:27:07.029Z,965
2023-03-23T08:29:54.959Z,952
2023-03-23T08:32:43.268Z,950
2023-03-23T08:35:31.145Z,962
2023-03-23T08:38:19.081Z,961
2023-03-23T08:41:06.935Z,960
2023-03-23T08:43:54.899Z,948
2023-03-23T08:46:42.633Z,956
2023-03-23T08:49:30.469Z,948
2023-03-23T08:52:18.279Z,930
2023-03-23T08:55:06.297Z,924
2023-03-23T08:57:54.106Z,916
2023-03-23T09:00:45.777Z,900
2023-03-23T09:03:34.151Z,914
2023-03-23T09:06:21.945Z,893
2023-03-23T09:09:09.670Z,893
2023-03-23T09:11:58.706Z,883
2023-03-23T09:14:47.691Z,894
2023-03-23T09:17:50.110Z,906
2023-03-23T09:20:37.822Z,905
2023-03-23T09:23:38.886Z,903
2023-03-23T09:26:26.573Z,878
2023-03-23T09:29:14.351Z,827
2023-03-23T09:32:02.186Z,838
2023-03-23T09:34:50.135Z,907
2023-03-23T09:37:37.906Z,908
2023-03-23T09:40:25.893Z,936
2023-03-23T09:43:13.679Z,939
2023-03-23T09:46:01.517Z,934
2023-03-23T09:48:49.470Z,926
2023-03-23T09:51:37.390Z,946
2023-03-23T09:54:25.224Z,960
2023-03-23T09:57:13.055Z,943
2023-03-23T10:00:00.793Z,938
2023-03-23T10:02:48.842Z,950
2023-03-23T10:05:36.719Z,934
2023-03-23T10:08:24.753Z,928
2023-03-23T10:11:17.091Z,927
2023-03-23T10:14:04.979Z,941
2023-03-23T10:16:52.708Z,946
2023-03-23T10:19:40.698Z,934
2023-03-23T10:22:28.610Z,924
2023-03-23T10:25:16.392Z,932
2023-03-23T10:28:04.203Z,943
2023-03-23T10:30:52.111Z,929
2023-03-23T10:33:39.919Z,962
2023-03-23T10:36:27.753Z,976
2023-03-23T10:39:15.726Z,966
2023-03-23T10:42:03.549Z,947
2023-03-23T10:44:51.272Z,943
2023-03-23T10:47:39.197Z,927
2023-03-23T10:50:27.044Z,954
2023-03-23T10:53:15.017Z,932
2023-03-23T10:56:02.777Z,942
2023-03-23T10:59:00.727Z,949
2023-03-23T11:01:48.558Z,923
2023-03-23T11:04:49.455Z,931
2023-03-23T11:07:41.017Z,951
2023-03-23T11:10:28.801Z,969
2023-03-23T11:13:16.562Z,960
2023-03-23T11:16:07.031Z,952
2023-03-23T11:18:54.765Z,966
2023-03-23T11:21:42.597Z,970
2023-03-23T11:24:30.181Z,972
2023-03-23T11:27:17.869Z,968
2023-03-23T11:30:05.818Z,971
2023-03-23T11:32:53.648Z,977
2023-03-23T11:35:41.461Z,1004
2023-03-23T11:38:29.509Z,1001
2023-03-23T11:41:17.238Z,992
2023-03-23T11:44:04.929Z,971
2023-03-23T11:46:52.778Z,982
2023-03-23T11:49:40.737Z,988
2023-03-23T11:52:28.461Z,970
2023-03-23T11:55:16.300Z,972
2023-03-23T11:58:04.544Z,952
2023-03-23T12:00:52.234Z,961
2023-03-23T12:03:40.956Z,964
2023-03-23T12:06:28.920Z,970
2023-03-23T12:09:16.555Z,963
2023-03-23T12:12:04.382Z,967
2023-03-23T12:14:52.361Z,969
2023-03-23T12:17:40.251Z,968
2023-03-23T12:20:31.579Z,977
2023-03-23T12:23:22.169Z,973
2023-03-23T12:26:10.008Z,979
2023-03-23T12:28:57.836Z,973
2023-03-23T12:34:33.351Z,983
2023-03-23T12:37:21.170Z,986
2023-03-23T12:40:09.124Z,984
2023-03-23T12:43:06.379Z,985
2023-03-23T12:45:54.366Z,974
2023-03-23T12:48:42.148Z,978
2023-03-23T12:51:30.036Z,982
2023-03-23T12:54:17.997Z,984
2023-03-23T12:57:06.142Z,991
2023-03-23T12:59:53.817Z,995
2023-03-23T13:02:41.835Z,984
2023-03-23T13:05:29.619Z,995
2023-03-23T13:08:17.560Z,992
2023-03-23T13:11:05.365Z,1009
2023-03-23T13:13:55.224Z,990
2023-03-23T13:16:43.105Z,994
2023-03-23T13:19:30.913Z,993
2023-03-23T13:22:18.609Z,1000
2023-03-23T13:25:09.537Z,985
2023-03-23T13:27:57.375Z,984
2023-03-23T13:30:47.851Z,974
2023-03-23T13:33:35.672Z,981
2023-03-23T13:36:23.533Z,989
2023-03-23T13:39:11.516Z,981
2023-03-23T13:41:59.327Z,980
2023-03-23T13:44:47.230Z,987
2023-03-23T13:47:35.330Z,985
2023-03-23T13:50:23.090Z,984
2023-03-23T13:53:10.880Z,983
2023-03-23T13:56:01.372Z,974
2023-03-23T13:58:51.224Z,974
2023-03-23T14:01:39.094Z,978
2023-03-23T14:04:27.052Z,968
2023-03-23T14:07:14.878Z,980
2023-03-23T14:10:02.973Z,979
2023-03-23T14:12:50.852Z,986
2023-03-23T14:15:38.753Z,984
2023-03-23T14:18:26.651Z,1006
2023-03-23T14:21:14.505Z,990
2023-03-23T14:24:02.276Z,1009
2023-03-23T14:26:50.430Z,1007
2023-03-23T14:29:38.122Z,1011
2023-03-23T14:32:25.995Z,1004
2023-03-23T14:35:13.867Z,981
2023-03-23T14:38:02.279Z,1002
2023-03-23T14:40:50.106Z,997
2023-03-23T14:43:37.903Z,996
2023-03-23T14:46:25.677Z,1006
2023-03-23T14:49:13.432Z,984
2023-03-23T14:52:01.296Z,1006
2023-03-23T14:54:49.438Z,1003
2023-03-23T14:57:37.344Z,976
2023-03-23T15:00:25.305Z,976
2023-03-23T15:03:13.189Z,985
2023-03-23T15:06:00.948Z,1001
2023-03-23T15:08:48.893Z,981
2023-03-23T15:11:37.047Z,976
2023-03-23T15:14:24.890Z,970
2023-03-23T15:17:12.925Z,980
2023-03-23T15:20:00.761Z,964
2023-03-23T15:22:48.549Z,960
2023-03-23T15:25:36.436Z,968
2023-03-23T15:28:24.420Z,967
2023-03-23T15:31:13.487Z,970
2023-03-23T15:34:01.430Z,965
2023-03-23T15:36:49.258Z,957
2023-03-23T15:39:40.421Z,967
2023-03-23T15:42:28.665Z,962
2023-03-23T15:45:17.066Z,961
2023-03-23T15:48:05.278Z,969
2023-03-23T15:50:53.121Z,967
2023-03-23T15:53:40.877Z,971
2023-03-23T15:56:33.930Z,965
2023-03-23T15:59:21.840Z,965
2023-03-23T16:02:09.823Z,954
2023-03-23T16:04:57.746Z,955
2023-03-23T16:07:45.625Z,957
2023-03-23T16:10:33.511Z,962
2023-03-23T16:13:21.394Z,953
2023-03-23T16:16:09.287Z,958
2023-03-23T16:18:57.286Z,943
2023-03-23T16:21:45.105Z,957
2023-03-23T16:24:32.888Z,945
2023-03-23T16:27:20.780Z,957
2023-03-23T16:30:12.315Z,944
2023-03-23T16:33:00.347Z,959
2023-03-23T16:35:48.480Z,922
2023-03-23T16:38:48.897Z,956
2023-03-23T16:41:37.556Z,924
2023-03-23T16:44:25.386Z,923
2023-03-23T16:47:13.273Z,910
2023-03-23T16:50:01.341Z,903
2023-03-23T16:52:49.321Z,896
2023-03-23T16:55:37.088Z,894
2023-03-23T16:58:25.227Z,883
2023-03-23T17:01:13.074Z,837
2023-03-23T17:04:01.234Z,796
2023-03-23T17:06:49.172Z,736
2023-03-23T17:09:37.074Z,684
2023-03-23T17:12:24.861Z,642
2023-03-23T17:15:13.043Z,579
2023-03-23T17:18:05.365Z,479
2023-03-23T17:20:53.276Z,456
2023-03-23T17:23:41.140Z,432
2023-03-23T17:26:29.047Z,426
2023-03-23T17:29:16.999Z,394
2023-03-23T17:32:05.186Z,416
2023-03-23T17:34:53.114Z,492
2023-03-23T17:37:41.386Z,623
2023-03-23T17:40:29.442Z,670
2023-03-23T17:43:17.618Z,645
2023-03-23T17:46:05.525Z,583
2023-03-23T17:48:53.723Z,518
2023-03-23T17:51:41.607Z,452
2023-03-23T17:54:30.021Z,397
2023-03-23T17:57:18.216Z,354
2023-03-23T18:00:06.132Z,309
2023-03-23T18:02:54.020Z,249
2023-03-23T18:05:42.275Z,177
2023-03-23T18:08:30.176Z,124
2023-03-23T18:11:18.386Z,83
2023-03-23T18:14:06.300Z,59
2023-03-23T18:16:54.363Z,42
2023-03-23T18:19:42.250Z,30
2023-03-23T18:22:30.086Z,11
2023-03-23T18:25:17.776Z,19
2023-03-23T18:28:06.788Z,16
2023-03-23T18:30:55.102Z,15
2023-03-23T18:33:43.062Z,3
2023-03-23T18:36:30.796Z,10
2023-03-23T18:39:18.545Z,11
2023-03-23T18:42:06.259Z,8
2023-03-23T18:44:54.245Z,12
2023-03-23T18:47:42.222Z,13
2023-03-23T18:50:30.323Z,12
2023-03-23T18:53:18.205Z,11
2023-03-23T18:56:06.195Z,15
2023-03-23T18:58:54.146Z,15
2023-03-23T19:01:42.046Z,12
2023-03-23T19:04:30.239Z,15
2023-03-23T19:07:18.249Z,14
2023-03-23T19:10:06.084Z,19
2023-03-23T19:12:53.892Z,11
2023-03-23T19:15:41.744Z,1
2023-03-23T19:18:29.749Z,11
2023-03-23T19:21:19.925Z,15
2023-03-23T19:24:09.302Z,18
2023-03-23T19:26:57.151Z,6
2023-03-23T19:29:45.996Z,0
2023-03-23T19:32:33.822Z,0
2023-03-23T19:35:21.893Z,11
2023-03-23T19:38:13.123Z,10
2023-03-23T19:41:03.663Z,12
2023-03-23T19:43:52.135Z,20
2023-03-23T19:46:40.235Z,10
2023-03-23T19:49:28.157Z,12
2023-03-23T19:52:17.843Z,11
2023-03-23T19:55:06.982Z,10
2023-03-23T19:57:55.257Z,19
2023-03-23T20:00:44.309Z,15
2023-03-23T20:03:32.494Z,12
2023-03-23T20:06:21.617Z,12
2023-03-23T20:09:11.134Z,10
2023-03-23T20:11:59.206Z,10
2023-03-23T20:14:47.526Z,8
2023-03-23T20:17:35.611Z,7
2023-03-23T20:20:26.312Z,17
2023-03-23T20:23:15.276Z,9
2023-03-23T20:28:51.538Z,13
2023-03-23T20:31:40.218Z,9
2023-03-23T20:34:27.991Z,7
2023-03-23T20:37:15.982Z,14
2023-03-23T20:40:03.767Z,3
2023-03-23T20:42:51.698Z,15
2023-03-23T20:45:39.579Z,20
2023-03-23T20:48:27.574Z,13
2023-03-23T20:51:15.416Z,10
2023-03-23T20:54:03.345Z,7
2023-03-23T20:56:51.168Z,10
2023-03-23T20:59:39.065Z,13
2023-03-23T21:02:27.093Z,15
2023-03-23T21:05:15.245Z,12
2023-03-23T21:08:03.493Z,13
2023-03-23T21:10:51.404Z,12
2023-03-23T21:13:39.412Z,16
2023-03-23T21:16:27.508Z,1
2023-03-23T21:19:16.079Z,17
2023-03-23T21:22:04.095Z,2
2023-03-23T21:24:51.979Z,13
2023-03-23T21:27:39.861Z,10
2023-03-23T21:30:27.698Z,13
2023-03-23T21:33:15.580Z,10
2023-03-23T21:36:03.470Z,10
2023-03-23T21:38:51.506Z,11
2023-03-23T21:41:41.621Z,14
2023-03-23T21:44:30.651Z,10
2023-03-23T21:47:18.538Z,9
2023-03-23T21:50:06.679Z,14
2023-03-23T21:52:54.432Z,9
2023-03-23T21:55:42.398Z,11
2023-03-23T21:58:30.332Z,8
2023-03-23T22:01:18.253Z,7
2023-03-23T22:04:06.206Z,10
2023-03-23T22:06:54.126Z,12
2023-03-23T22:09:42.012Z,9
2023-03-23T22:12:30.010Z,7
2023-03-23T22:15:17.957Z,5
2023-03-23T22:18:06.207Z,12
2023-03-23T22:20:54.084Z,11
2023-03-23T22:23:42.019Z,3
2023-03-23T22:26:29.890Z,0
2023-03-23T22:29:17.848Z,2
2023-03-23T22:32:05.682Z,2
2023-03-23T22:34:53.928Z,0
2023-03-23T22:37:41.920Z,14
2023-03-23T22:40:29.859Z,10
2023-03-23T22:43:17.718Z,12
2023-03-23T22:46:05.744Z,8
2023-03-23T22:48:53.604Z,13
2023-03-23T22:51:41.452Z,10
2023-03-23T22:54:29.280Z,13
2023-03-23T22:57:17.118Z,10
2023-03-23T23:00:05.076Z,5
2023-03-23T23:02:53.040Z,4
2023-03-23T23:05:40.876Z,4
2023-03-23T23:08:28.910Z,9
2023-03-23T23:11:16.800Z,13
2023-03-23T23:14:04.610Z,7
2023-03-23T23:16:52.503Z,5
2023-03-23T23:19:40.352Z,5
2023-03-23T23:22:28.190Z,8
2023-03-23T23:25:16.130Z,5
2023-03-23T23:28:03.957Z,0
2023-03-23T23:30:52.029Z,4
2023-03-23T23:33:40.162Z,15
2023-03-23T23:36:28.360Z,8
2023-03-23T23:39:16.215Z,10
2023-03-23T23:42:04.132Z,7
2023-03-23T23:44:51.932Z,1
2023-03-23T23:47:39.798Z,8
2023-03-23T23:50:27.938Z,12
2023-03-23T23:53:15.951Z,9
2023-03-23T23:56:03.897Z,12
2023-03-23T23:58:51.978Z,10
